createdAt,value
2019-03-13T00:02:38.783Z,8.83
2019-03-13T00:11:10.905Z,8.10
2019-03-13T00:14:00.084Z,7.53
2019-03-13T00:16:43.430Z,9.40
2019-03-13T00:19:27.663Z,9.87
2019-03-13T00:25:30.306Z,7.97
2019-03-13T00:31:00.924Z,9.20
2019-03-13T00:33:45.015Z,8.70
2019-03-13T00:36:28.359Z,11.67
2019-03-13T00:39:17.581Z,8.77
2019-03-13T00:42:02.172Z,7.83
2019-03-13T00:47:26.439Z,6.83
2019-03-13T00:50:09.941Z,7.57
2019-03-13T00:55:40.874Z,6.67
2019-03-13T00:58:31.502Z,5.60
2019-03-13T01:01:35.395Z,6.97
2019-03-13T01:07:05.556Z,7.00
2019-03-13T01:13:05.639Z,4.50
2019-03-13T01:15:49.272Z,5.60
2019-03-13T01:21:32.848Z,9.37
2019-03-13T01:24:21.176Z,5.53
2019-03-13T01:27:09.998Z,4.93
2019-03-13T01:29:58.913Z,6.83
2019-03-13T01:36:08.301Z,5.30
2019-03-13T01:38:52.256Z,6.47
2019-03-13T01:47:09.072Z,5.03
2019-03-13T01:49:57.002Z,7.97
2019-03-13T01:55:42.927Z,6.63
2019-03-13T01:58:17.437Z,7.57
2019-03-13T02:00:48.554Z,8.13
2019-03-13T02:06:33.303Z,7.40
2019-03-13T02:09:15.030Z,10.33
2019-03-13T02:12:00.504Z,7.60
2019-03-13T02:14:45.151Z,12.47
2019-03-13T02:17:17.517Z,8.33
2019-03-13T02:20:00.835Z,5.83
2019-03-13T02:22:44.106Z,8.47
2019-03-13T02:25:27.820Z,10.30
2019-03-13T02:28:11.165Z,17.00
2019-03-13T02:30:53.830Z,11.10
2019-03-13T02:33:36.897Z,9.33
2019-03-13T02:36:20.380Z,14.87
2019-03-13T02:39:06.448Z,10.83
2019-03-13T02:41:54.592Z,9.97
2019-03-13T02:44:37.461Z,11.20
2019-03-13T02:50:17.070Z,10.23
2019-03-13T02:53:00.493Z,9.13
2019-03-13T02:55:43.852Z,10.33
2019-03-13T02:58:16.654Z,11.57
2019-03-13T03:01:28.590Z,10.00
2019-03-13T03:04:14.904Z,13.60
2019-03-13T03:07:02.207Z,16.67
2019-03-13T03:09:46.003Z,16.60
2019-03-13T03:12:29.542Z,9.77
2019-03-13T03:15:13.031Z,8.37
2019-03-13T03:17:57.018Z,13.70
2019-03-13T03:20:40.254Z,9.20
2019-03-13T03:23:12.638Z,15.53
2019-03-13T03:29:07.463Z,7.73
2019-03-13T03:31:39.697Z,13.17
2019-03-13T03:34:23.107Z,7.60
2019-03-13T03:39:52.556Z,12.27
2019-03-13T03:42:36.781Z,12.73
2019-03-13T03:45:20.241Z,17.00
2019-03-13T03:48:03.876Z,13.10
2019-03-13T03:50:47.020Z,12.93
2019-03-13T03:53:35.110Z,14.73
2019-03-13T03:56:19.238Z,10.20
2019-03-13T03:59:05.060Z,15.87
2019-03-13T04:01:52.931Z,17.97
2019-03-13T04:07:18.165Z,13.33
2019-03-13T04:12:46.063Z,11.10
2019-03-13T04:15:30.281Z,10.37
2019-03-13T04:18:14.173Z,11.70
2019-03-13T04:20:57.507Z,12.97
2019-03-13T04:26:36.566Z,13.20
2019-03-13T04:29:20.601Z,10.53
2019-03-13T04:37:39.841Z,12.67
2019-03-13T04:40:28.446Z,13.63
2019-03-13T04:43:12.543Z,12.10
2019-03-13T04:51:34.770Z,13.10
2019-03-13T04:54:18.306Z,18.70
2019-03-13T04:57:01.472Z,17.27
2019-03-13T04:59:49.442Z,12.60
2019-03-13T05:02:33.030Z,12.93
2019-03-13T05:05:17.489Z,19.70
2019-03-13T05:07:50.632Z,12.00
2019-03-13T05:13:34.044Z,10.27
2019-03-13T05:16:18.505Z,14.27
2019-03-13T05:19:03.768Z,14.03
2019-03-13T05:21:47.772Z,16.63
2019-03-13T05:27:28.115Z,20.23
2019-03-13T05:30:12.314Z,14.20
2019-03-13T05:32:43.790Z,12.10
2019-03-13T05:35:27.321Z,14.73
2019-03-13T05:37:59.652Z,13.67
2019-03-13T05:40:45.059Z,17.63
2019-03-13T05:43:16.487Z,16.00
2019-03-13T05:46:00.265Z,14.87
2019-03-13T05:48:49.558Z,12.70
2019-03-13T05:51:41.131Z,15.13
2019-03-13T05:54:24.245Z,15.37
2019-03-13T06:00:08.026Z,15.70
2019-03-13T06:02:53.917Z,16.80
2019-03-13T06:06:01.610Z,17.40
2019-03-13T06:12:15.936Z,14.90
2019-03-13T06:15:04.690Z,15.77
2019-03-13T06:17:50.456Z,21.70
2019-03-13T06:20:34.411Z,16.67
2019-03-13T06:23:18.088Z,13.70
2019-03-13T06:26:06.567Z,18.10
2019-03-13T06:28:54.238Z,19.73
2019-03-13T06:31:27.534Z,16.17
2019-03-13T06:37:26.598Z,23.60
2019-03-13T06:40:10.375Z,20.80
2019-03-13T06:42:57.507Z,17.63
2019-03-13T06:45:40.911Z,13.23
2019-03-13T06:48:28.244Z,18.43
2019-03-13T06:51:14.760Z,14.33
2019-03-13T06:56:45.516Z,11.77
2019-03-13T06:59:33.397Z,14.83
2019-03-13T07:14:26.046Z,14.37
2019-03-13T07:17:17.302Z,19.73
2019-03-13T07:23:03.737Z,19.23
2019-03-13T07:25:57.584Z,15.47
2019-03-13T07:29:18.707Z,10.77
2019-03-13T07:32:08.761Z,17.57
2019-03-13T07:41:27.592Z,20.63
2019-03-13T07:50:22.688Z,12.87
2019-03-13T07:53:28.406Z,19.53
2019-03-13T07:59:19.933Z,11.00
2019-03-13T08:02:18.612Z,15.63
2019-03-13T08:09:25.486Z,12.50
2019-03-13T08:11:44.259Z,13.50
2019-03-13T08:14:47.347Z,12.60
2019-03-13T08:21:01.636Z,13.33
2019-03-13T08:23:49.743Z,9.10
2019-03-13T08:30:29.652Z,14.07
2019-03-13T08:36:27.746Z,11.57
2019-03-13T08:42:03.449Z,12.80
2019-03-13T08:45:09.537Z,12.47
2019-03-13T08:48:03.466Z,10.60
2019-03-13T08:50:55.387Z,11.33
2019-03-13T08:56:53.074Z,9.47
2019-03-13T09:00:14.415Z,11.07
2019-03-13T09:06:22.506Z,16.33
2019-03-13T09:09:06.012Z,10.97
2019-03-13T09:11:54.907Z,10.87
2019-03-13T09:15:01.363Z,11.00
2019-03-13T09:18:08.236Z,16.63
2019-03-13T09:24:10.362Z,16.77
2019-03-13T09:27:17.536Z,18.47
2019-03-13T09:30:29.509Z,23.93
2019-03-13T09:33:38.274Z,20.37
2019-03-13T09:39:12.202Z,15.40
2019-03-13T09:45:07.033Z,10.93
2019-03-13T09:47:59.781Z,13.00
2019-03-13T09:51:03.433Z,15.47
2019-03-13T09:53:48.959Z,13.10
2019-03-13T10:05:57.692Z,7.10
2019-03-13T10:11:49.395Z,11.73
2019-03-13T10:14:53.253Z,11.93
2019-03-13T10:17:41.750Z,17.50
2019-03-13T10:20:48.453Z,10.83
2019-03-13T10:23:49.978Z,16.20
2019-03-13T10:26:50.767Z,9.80
2019-03-13T10:29:54.214Z,14.73
2019-03-13T10:38:16.340Z,11.57
2019-03-13T10:47:16.189Z,11.37
2019-03-13T10:50:03.161Z,9.57
2019-03-13T10:53:14.496Z,13.20
2019-03-13T11:01:59.921Z,9.73
2019-03-13T11:08:02.255Z,6.50
2019-03-13T11:10:58.533Z,9.63
2019-03-13T11:14:14.848Z,11.10
2019-03-13T11:17:12.823Z,12.10
2019-03-13T11:20:03.342Z,12.40
2019-03-13T11:23:07.842Z,13.80
2019-03-13T11:29:08.584Z,11.03
2019-03-13T11:32:12.625Z,9.77
2019-03-13T11:35:19.962Z,9.37
2019-03-13T11:38:22.637Z,8.77
2019-03-13T11:49:57.717Z,10.17
2019-03-13T11:55:45.292Z,13.80
2019-03-13T11:58:47.164Z,14.83
2019-03-13T12:04:34.601Z,15.20
2019-03-13T12:07:37.927Z,19.00
2019-03-13T12:10:26.700Z,12.33
2019-03-13T12:16:23.072Z,14.90
2019-03-13T12:19:13.580Z,19.10
2019-03-13T12:25:15.547Z,11.83
2019-03-13T12:33:59.677Z,15.23
2019-03-13T12:37:06.580Z,7.60
2019-03-13T12:48:58.642Z,13.87
2019-03-13T12:54:29.833Z,16.20
2019-03-13T12:57:32.048Z,12.07
2019-03-13T13:09:41.179Z,13.70
2019-03-13T13:12:25.955Z,19.80
2019-03-13T13:18:35.003Z,9.27
2019-03-13T13:24:07.703Z,13.00
2019-03-13T13:26:51.174Z,11.33
2019-03-13T13:29:36.469Z,11.27
2019-03-13T13:32:22.837Z,14.37
2019-03-13T13:37:53.811Z,10.47
2019-03-13T13:40:40.939Z,14.30
2019-03-13T13:43:30.774Z,8.10
2019-03-13T13:49:12.835Z,13.27
2019-03-13T13:54:45.866Z,15.53
2019-03-13T14:00:16.797Z,12.97
2019-03-13T14:11:43.116Z,15.90
2019-03-13T14:14:26.455Z,12.20
2019-03-13T14:20:13.893Z,15.13
2019-03-13T14:23:01.568Z,14.57
2019-03-13T14:25:45.499Z,13.10
2019-03-13T14:28:32.414Z,13.67
2019-03-13T14:34:05.973Z,13.83
2019-03-13T14:36:38.244Z,15.63
2019-03-13T14:42:15.814Z,16.20
2019-03-13T14:44:59.968Z,11.40
2019-03-13T14:47:37.735Z,13.60
2019-03-13T14:50:21.055Z,11.20
2019-03-13T14:55:56.780Z,14.80
2019-03-13T14:58:47.617Z,18.23
2019-03-13T15:04:38.335Z,17.63
2019-03-13T15:10:09.698Z,21.73
2019-03-13T15:15:29.272Z,20.33
2019-03-13T15:17:59.929Z,14.10
2019-03-13T15:20:47.414Z,21.13
2019-03-13T16:10:27.405Z,6.63
2019-03-13T16:13:19.208Z,6.53
2019-03-13T16:33:49.971Z,4.60
2019-03-13T16:36:34.345Z,5.40
2019-03-13T16:39:20.004Z,5.53
2019-03-13T16:42:02.336Z,5.83
2019-03-13T16:47:50.462Z,5.77
2019-03-13T16:50:34.683Z,7.27
2019-03-13T16:56:04.833Z,7.30
2019-03-13T16:58:50.600Z,5.20
2019-03-13T17:01:40.031Z,5.63
2019-03-13T17:04:24.819Z,8.97
2019-03-13T17:07:10.985Z,6.93
2019-03-13T17:09:55.484Z,8.80
2019-03-13T17:12:31.463Z,8.83
2019-03-13T17:15:04.394Z,9.47
2019-03-13T17:17:57.846Z,8.30
2019-03-13T17:20:50.789Z,11.30
2019-03-13T17:23:34.039Z,10.27
2019-03-13T17:26:17.421Z,15.63
2019-03-13T17:29:12.350Z,14.83
2019-03-13T17:32:16.810Z,9.77
2019-03-13T17:37:52.919Z,14.67
2019-03-13T17:40:37.679Z,14.63
2019-03-13T17:43:23.138Z,16.33
2019-03-13T17:46:07.390Z,18.63
2019-03-13T17:48:54.092Z,20.87
2019-03-13T17:51:38.331Z,11.10
2019-03-13T17:57:18.052Z,15.10
2019-03-13T18:02:48.719Z,15.10
2019-03-13T18:05:36.851Z,16.90
2019-03-13T18:08:19.354Z,14.90
2019-03-13T18:11:02.344Z,11.23
2019-03-13T18:13:45.835Z,14.37
2019-03-13T18:19:45.562Z,12.40
2019-03-13T18:34:23.768Z,12.57
2019-03-13T18:37:16.374Z,16.10
2019-03-13T18:40:21.422Z,20.33
2019-03-13T18:43:07.765Z,23.73
2019-03-13T18:45:52.162Z,30.83
2019-03-13T18:48:39.723Z,26.90
2019-03-13T18:54:19.909Z,26.93
2019-03-13T18:57:03.886Z,33.10
2019-03-13T18:59:47.644Z,38.60
2019-03-13T19:02:34.850Z,26.20
2019-03-13T19:05:18.518Z,26.93
2019-03-13T19:08:02.299Z,20.43
2019-03-13T19:10:51.583Z,20.97
2019-03-13T19:13:41.041Z,22.17
2019-03-13T19:16:30.687Z,20.63
2019-03-13T19:19:14.753Z,22.00
2019-03-13T19:24:59.523Z,28.17
2019-03-13T19:27:43.396Z,27.07
2019-03-13T19:30:31.638Z,18.93
2019-03-13T19:33:25.415Z,25.30
2019-03-13T19:36:14.911Z,21.93
2019-03-13T19:38:58.868Z,21.30
2019-03-13T19:41:42.122Z,24.60
2019-03-13T19:44:27.435Z,22.80
2019-03-13T19:47:19.604Z,15.63
2019-03-13T19:49:53.968Z,18.07
2019-03-13T19:52:40.780Z,18.20
2019-03-13T19:55:25.329Z,12.03
2019-03-13T19:58:09.994Z,13.27
2019-03-13T20:00:59.067Z,13.90
2019-03-13T20:03:54.588Z,9.67
2019-03-13T20:06:41.422Z,16.30
2019-03-13T20:09:14.410Z,14.53
2019-03-13T20:12:00.181Z,10.73
2019-03-13T20:14:44.357Z,12.80
2019-03-13T20:17:34.718Z,10.73
2019-03-13T20:20:19.997Z,11.07
2019-03-13T20:22:53.227Z,11.17
2019-03-13T20:25:38.276Z,8.63
2019-03-13T20:28:22.116Z,18.17
2019-03-13T20:31:06.456Z,12.03
2019-03-13T20:33:54.400Z,11.67
2019-03-13T20:39:23.208Z,16.27
2019-03-13T20:42:13.750Z,11.00
2019-03-13T20:44:57.875Z,15.57
2019-03-13T20:47:41.197Z,16.80
2019-03-13T20:50:14.090Z,12.50
2019-03-13T20:58:24.807Z,17.07
2019-03-13T21:00:55.902Z,14.17
2019-03-13T21:03:42.074Z,18.00
2019-03-13T21:06:32.971Z,16.70
2019-03-13T21:09:19.033Z,17.30
2019-03-13T21:12:07.303Z,20.00
2019-03-13T21:16:01.226Z,25.87
2019-03-13T21:18:06.248Z,17.87
2019-03-13T21:20:50.745Z,22.87
2019-03-13T21:23:37.788Z,18.53
2019-03-13T21:26:25.660Z,18.17
2019-03-13T21:29:09.817Z,22.20
2019-03-13T21:31:53.668Z,14.30
2019-03-13T21:34:38.479Z,12.23
2019-03-13T21:37:22.717Z,18.83
2019-03-13T21:40:08.308Z,19.23
2019-03-13T21:42:55.876Z,14.73
2019-03-13T21:45:42.975Z,14.87
2019-03-13T21:48:26.759Z,13.93
2019-03-13T21:51:11.919Z,16.83
2019-03-13T21:53:58.984Z,15.07
2019-03-13T21:56:45.629Z,18.00
2019-03-13T21:59:32.032Z,15.27
2019-03-13T22:02:32.352Z,17.57
2019-03-13T22:05:25.140Z,19.00
2019-03-13T22:07:46.990Z,11.70
2019-03-13T22:10:31.193Z,12.60
2019-03-13T22:16:17.868Z,13.00
2019-03-13T22:19:08.219Z,11.63
2019-03-13T22:21:53.229Z,9.87
2019-03-13T22:24:41.246Z,14.10
2019-03-13T22:27:26.118Z,15.43
2019-03-13T22:30:11.340Z,12.53
2019-03-13T22:32:56.561Z,16.93
2019-03-13T22:35:44.795Z,11.00
2019-03-13T22:38:28.697Z,14.17
2019-03-13T22:41:16.005Z,11.67
2019-03-13T22:44:07.356Z,11.53
2019-03-13T22:46:52.812Z,8.50
2019-03-13T22:49:41.074Z,10.20
2019-03-13T22:55:59.886Z,8.40
2019-03-13T22:58:41.121Z,11.40
2019-03-13T23:01:29.714Z,12.20
2019-03-13T23:04:15.935Z,11.30
2019-03-13T23:07:33.577Z,7.63
2019-03-13T23:10:17.272Z,7.10
2019-03-13T23:13:07.242Z,9.30
2019-03-13T23:19:25.798Z,9.73
2019-03-13T23:25:15.141Z,11.10
2019-03-13T23:28:03.901Z,16.47
2019-03-13T23:30:48.190Z,8.00
2019-03-13T23:33:36.483Z,12.00
2019-03-13T23:39:28.922Z,10.43
2019-03-13T23:42:13.050Z,8.13
2019-03-13T23:44:58.775Z,6.20
2019-03-13T23:47:43.830Z,8.70
2019-03-13T23:50:27.754Z,11.63
2019-03-13T23:53:11.754Z,11.57
2019-03-13T23:59:02.654Z,8.40
